createdAt,value
2022-12-16T00:01:25.220Z,0.40
2022-12-16T00:03:54.897Z,0.30
2022-12-16T00:06:23.669Z,0.40
2022-12-16T00:08:50.240Z,0.37
2022-12-16T00:11:18.796Z,0.40
2022-12-16T00:13:45.320Z,0.30
2022-12-16T00:16:14.121Z,0.30
2022-12-16T00:18:41.260Z,0.40
2022-12-16T00:21:08.584Z,0.30
2022-12-16T00:23:36.398Z,0.30
2022-12-16T00:26:03.274Z,0.40
2022-12-16T00:28:29.801Z,0.40
2022-12-16T00:30:56.965Z,0.40
2022-12-16T00:33:25.340Z,0.37
2022-12-16T00:35:52.396Z,0.30
2022-12-16T00:38:21.027Z,0.37
2022-12-16T00:40:47.593Z,0.40
2022-12-16T00:43:14.256Z,0.40
2022-12-16T00:45:40.841Z,0.30
2022-12-16T00:48:08.084Z,0.33
2022-12-16T00:50:35.604Z,0.20
2022-12-16T00:53:02.541Z,0.30
2022-12-16T00:55:29.198Z,0.30
2022-12-16T00:57:55.730Z,0.33
2022-12-16T01:00:22.982Z,0.30
2022-12-16T01:02:50.725Z,0.40
2022-12-16T01:05:19.244Z,0.40
2022-12-16T01:07:45.880Z,0.40
2022-12-16T01:10:13.636Z,0.30
2022-12-16T01:12:40.418Z,0.40
2022-12-16T01:15:08.714Z,0.30
2022-12-16T01:17:35.468Z,0.40
2022-12-16T01:20:02.702Z,0.30
2022-12-16T01:22:31.864Z,0.40
2022-12-16T01:24:59.364Z,0.30
2022-12-16T01:27:26.785Z,0.40
2022-12-16T01:29:53.326Z,0.40
2022-12-16T01:32:22.220Z,0.40
2022-12-16T01:34:55.081Z,0.30
2022-12-16T01:37:23.735Z,0.37
2022-12-16T01:39:50.795Z,0.30
2022-12-16T01:42:20.631Z,0.40
2022-12-16T01:44:49.280Z,0.30
2022-12-16T01:47:30.907Z,0.37
2022-12-16T01:50:05.736Z,0.40
2022-12-16T01:52:36.880Z,0.40
2022-12-16T01:55:07.812Z,0.40
2022-12-16T02:00:06.137Z,0.40
2022-12-16T02:02:33.649Z,0.30
2022-12-16T02:05:00.774Z,0.30
2022-12-16T02:07:27.403Z,0.30
2022-12-16T02:09:55.428Z,0.40
2022-12-16T02:12:28.976Z,0.30
2022-12-16T02:15:54.009Z,0.20
2022-12-16T02:18:44.309Z,0.30
2022-12-16T02:21:29.031Z,0.30
2022-12-16T02:24:14.142Z,0.30
2022-12-16T02:26:46.577Z,0.30
2022-12-16T02:29:24.691Z,0.30
2022-12-16T02:32:18.772Z,0.30
2022-12-16T02:34:55.153Z,0.30
2022-12-16T02:37:30.553Z,0.30
2022-12-16T02:40:01.523Z,0.30
2022-12-16T02:45:07.633Z,0.20
2022-12-16T02:47:34.119Z,0.30
2022-12-16T02:50:00.807Z,0.30
2022-12-16T02:52:30.707Z,0.30
2022-12-16T02:55:01.265Z,0.30
2022-12-16T02:57:53.691Z,0.32
2022-12-16T03:00:23.245Z,0.30
2022-12-16T03:03:08.649Z,0.30
2022-12-16T03:05:41.989Z,0.40
2022-12-16T03:08:17.872Z,0.40
2022-12-16T03:10:47.535Z,0.40
2022-12-16T03:13:16.980Z,0.33
2022-12-16T03:15:44.532Z,0.30
2022-12-16T03:18:13.604Z,0.30
2022-12-16T03:20:49.828Z,0.33
2022-12-16T03:23:22.053Z,0.30
2022-12-16T03:25:50.575Z,0.30
2022-12-16T03:28:36.197Z,0.30
2022-12-16T03:31:37.925Z,0.40
2022-12-16T03:34:39.732Z,0.30
2022-12-16T03:37:11.616Z,0.30
2022-12-16T03:39:48.404Z,0.30
2022-12-16T03:42:16.229Z,0.40
2022-12-16T03:44:47.631Z,0.30
2022-12-16T03:47:19.802Z,0.40
2022-12-16T03:49:49.785Z,0.30
2022-12-16T03:52:16.295Z,0.30
2022-12-16T03:54:42.792Z,0.30
2022-12-16T03:57:14.727Z,0.30
2022-12-16T03:59:42.100Z,0.33
2022-12-16T04:02:08.861Z,0.30
2022-12-16T04:04:35.471Z,0.30
2022-12-16T04:07:01.938Z,0.30
2022-12-16T04:09:28.496Z,0.43
2022-12-16T04:11:55.063Z,0.40
2022-12-16T04:14:21.559Z,0.30
2022-12-16T04:16:49.313Z,0.40
2022-12-16T04:19:23.714Z,0.27
2022-12-16T04:21:50.601Z,0.30
2022-12-16T04:24:19.427Z,0.30
2022-12-16T04:26:47.167Z,0.30
2022-12-16T04:29:13.671Z,0.40
2022-12-16T04:31:40.288Z,0.33
2022-12-16T04:34:06.881Z,0.30
2022-12-16T04:36:33.357Z,0.40
2022-12-16T04:38:59.849Z,0.30
2022-12-16T04:41:26.364Z,0.30
2022-12-16T04:43:52.912Z,0.40
2022-12-16T04:46:19.581Z,0.30
2022-12-16T04:48:46.201Z,0.30
2022-12-16T04:51:15.578Z,0.40
2022-12-16T04:53:45.168Z,0.30
2022-12-16T04:56:19.482Z,0.40
2022-12-16T04:58:48.951Z,0.40
2022-12-16T05:01:15.574Z,0.37
2022-12-16T05:03:43.279Z,0.30
2022-12-16T05:06:09.805Z,0.30
2022-12-16T05:08:36.519Z,0.30
2022-12-16T05:11:03.357Z,0.30
2022-12-16T05:13:30.050Z,0.27
2022-12-16T05:15:56.967Z,0.33
2022-12-16T05:18:23.550Z,0.40
2022-12-16T05:20:50.026Z,0.30
2022-12-16T05:23:16.647Z,0.50
2022-12-16T05:25:43.356Z,0.40
2022-12-16T05:28:09.916Z,0.30
2022-12-16T05:30:36.453Z,0.30
2022-12-16T05:33:03.060Z,0.30
2022-12-16T05:35:29.567Z,0.40
2022-12-16T05:37:56.155Z,0.30
2022-12-16T05:40:22.718Z,0.40
2022-12-16T05:42:49.223Z,0.40
2022-12-16T05:45:15.820Z,0.40
2022-12-16T05:47:42.302Z,0.30
2022-12-16T05:50:08.870Z,0.30
2022-12-16T05:52:35.502Z,0.30
2022-12-16T05:55:02.057Z,0.40
2022-12-16T05:57:28.667Z,0.30
2022-12-16T05:59:55.228Z,0.30
2022-12-16T06:02:21.905Z,0.30
2022-12-16T06:04:48.563Z,0.30
2022-12-16T06:07:15.072Z,0.40
2022-12-16T06:09:41.522Z,0.30
2022-12-16T06:12:08.424Z,0.40
2022-12-16T06:14:34.950Z,0.30
2022-12-16T06:17:01.536Z,0.30
2022-12-16T06:19:28.009Z,0.40
2022-12-16T06:21:54.514Z,0.30
2022-12-16T06:24:22.211Z,0.30
2022-12-16T06:26:48.733Z,0.30
2022-12-16T06:29:15.246Z,0.40
2022-12-16T06:31:41.827Z,0.30
2022-12-16T06:34:08.400Z,0.30
2022-12-16T06:36:34.950Z,0.30
2022-12-16T06:39:01.599Z,0.40
2022-12-16T06:41:28.116Z,0.40
2022-12-16T06:43:54.585Z,0.40
2022-12-16T06:46:21.107Z,0.30
2022-12-16T06:48:47.623Z,0.30
2022-12-16T06:51:14.134Z,0.30
2022-12-16T06:53:40.641Z,0.30
2022-12-16T06:56:07.437Z,0.40
2022-12-16T06:58:33.900Z,0.40
2022-12-16T07:01:00.467Z,0.40
2022-12-16T07:03:29.451Z,0.40
2022-12-16T07:08:25.559Z,0.30
2022-12-16T07:10:52.094Z,0.30
2022-12-16T07:13:21.916Z,0.30
2022-12-16T07:15:48.417Z,0.40
2022-12-16T07:18:14.959Z,0.30
2022-12-16T07:20:41.579Z,0.40
2022-12-16T07:23:14.611Z,0.30
2022-12-16T07:25:44.263Z,0.30
2022-12-16T07:28:15.284Z,0.40
2022-12-16T07:30:43.521Z,0.40
2022-12-16T07:33:10.029Z,0.30
2022-12-16T07:35:36.583Z,0.30
2022-12-16T07:38:03.056Z,0.30
2022-12-16T07:40:29.569Z,0.40
2022-12-16T07:42:56.141Z,0.40
2022-12-16T07:45:22.640Z,0.40
2022-12-16T07:47:51.112Z,0.40
2022-12-16T07:50:17.899Z,0.40
2022-12-16T07:52:44.432Z,0.40
2022-12-16T07:55:11.045Z,0.40
2022-12-16T07:57:37.550Z,0.30
2022-12-16T08:00:04.772Z,0.40
2022-12-16T08:02:31.458Z,0.30
2022-12-16T08:04:58.046Z,0.30
2022-12-16T08:07:24.575Z,0.40
2022-12-16T08:09:52.312Z,0.33
2022-12-16T08:12:18.798Z,0.40
2022-12-16T08:14:45.260Z,0.40
2022-12-16T08:17:11.913Z,0.30
2022-12-16T08:19:38.540Z,0.30
2022-12-16T08:22:05.055Z,0.30
2022-12-16T08:24:31.528Z,0.30
2022-12-16T08:26:58.076Z,0.20
2022-12-16T08:29:43.642Z,0.30
2022-12-16T08:32:11.504Z,0.30
2022-12-16T08:34:38.058Z,0.30
2022-12-16T08:37:04.753Z,0.30
2022-12-16T08:39:31.290Z,0.20
2022-12-16T08:41:57.899Z,0.30
2022-12-16T08:44:24.432Z,0.20
2022-12-16T08:46:51.000Z,0.30
2022-12-16T08:49:17.764Z,0.30
2022-12-16T08:51:44.324Z,0.30
2022-12-16T08:54:11.018Z,0.30
2022-12-16T08:56:37.500Z,0.30
2022-12-16T08:59:04.939Z,0.30
2022-12-16T09:01:31.554Z,0.30
2022-12-16T09:03:58.167Z,0.30
2022-12-16T09:06:24.697Z,0.30
2022-12-16T09:08:51.260Z,0.20
2022-12-16T09:11:17.758Z,0.30
2022-12-16T09:13:44.284Z,0.30
2022-12-16T09:16:14.366Z,0.20
2022-12-16T09:18:44.192Z,0.20
2022-12-16T09:21:13.743Z,0.30
2022-12-16T09:23:40.320Z,0.30
2022-12-16T09:26:06.959Z,0.30
2022-12-16T09:28:33.977Z,0.22
2022-12-16T09:31:00.583Z,0.30
2022-12-16T09:33:27.131Z,0.30
2022-12-16T09:35:53.764Z,0.30
2022-12-16T09:38:22.005Z,0.38
2022-12-16T09:40:48.526Z,0.30
2022-12-16T09:43:30.787Z,0.30
2022-12-16T09:46:05.716Z,0.20
2022-12-16T09:48:49.659Z,0.30
2022-12-16T09:51:16.583Z,0.30
2022-12-16T09:53:44.812Z,0.30
2022-12-16T09:56:18.094Z,0.30
2022-12-16T09:58:59.450Z,0.30
2022-12-16T10:01:26.917Z,0.20
2022-12-16T10:03:53.527Z,0.30
2022-12-16T10:06:25.132Z,0.30
2022-12-16T10:09:14.002Z,0.30
2022-12-16T10:11:58.159Z,0.25
2022-12-16T10:14:38.696Z,0.30
2022-12-16T10:17:16.844Z,0.30
2022-12-16T10:19:52.010Z,0.22
2022-12-16T10:22:39.148Z,0.40
2022-12-16T10:25:25.141Z,0.30
2022-12-16T10:27:57.742Z,0.30
2022-12-16T10:30:24.252Z,0.30
2022-12-16T10:32:52.121Z,0.30
2022-12-16T10:35:55.544Z,0.30
2022-12-16T10:38:36.108Z,0.30
2022-12-16T10:41:04.131Z,0.30
2022-12-16T10:43:39.613Z,0.40
2022-12-16T10:46:12.387Z,0.30
2022-12-16T10:48:42.400Z,0.25
2022-12-16T10:51:20.199Z,0.30
2022-12-16T10:53:52.211Z,0.30
2022-12-16T10:57:03.387Z,0.30
2022-12-16T10:59:36.349Z,0.30
2022-12-16T11:02:20.736Z,0.30
2022-12-16T11:04:48.567Z,0.40
2022-12-16T11:07:51.898Z,0.40
2022-12-16T11:10:51.430Z,0.30
2022-12-16T11:13:28.806Z,0.20
2022-12-16T11:16:15.723Z,0.20
2022-12-16T11:18:49.953Z,0.20
2022-12-16T11:21:21.131Z,0.20
2022-12-16T11:23:47.646Z,0.30
2022-12-16T11:26:19.005Z,0.20
2022-12-16T11:28:45.481Z,0.28
2022-12-16T11:31:14.759Z,0.20
2022-12-16T11:33:43.051Z,0.30
2022-12-16T11:36:12.679Z,0.30
2022-12-16T11:38:45.968Z,0.28
2022-12-16T11:41:24.360Z,0.20
2022-12-16T11:43:54.048Z,0.20
2022-12-16T11:46:32.031Z,0.30
2022-12-16T11:49:06.430Z,0.20
2022-12-16T11:51:35.960Z,0.20
2022-12-16T11:54:31.620Z,0.20
2022-12-16T11:57:01.234Z,0.20
2022-12-16T11:59:41.292Z,0.30
2022-12-16T12:02:18.240Z,0.30
2022-12-16T12:04:45.046Z,0.30
2022-12-16T12:07:35.242Z,0.30
2022-12-16T12:10:31.239Z,0.30
2022-12-16T12:13:19.530Z,0.20
2022-12-16T12:16:26.086Z,0.20
2022-12-16T12:19:05.468Z,0.22
2022-12-16T12:21:46.923Z,0.20
2022-12-16T12:24:22.222Z,0.20
2022-12-16T12:27:20.239Z,0.20
2022-12-16T12:30:14.604Z,0.20
2022-12-16T12:32:48.764Z,0.30
2022-12-16T12:35:30.291Z,0.20
2022-12-16T12:38:18.927Z,0.20
2022-12-16T12:41:05.773Z,0.20
2022-12-16T12:43:51.218Z,0.30
2022-12-16T12:46:21.862Z,0.20
2022-12-16T12:49:04.435Z,0.25
2022-12-16T12:51:33.625Z,0.25
2022-12-16T12:54:14.126Z,0.20
2022-12-16T12:56:49.544Z,0.20
2022-12-16T13:00:02.619Z,0.20
2022-12-16T13:02:37.498Z,0.25
2022-12-16T13:05:05.205Z,0.20
2022-12-16T13:07:32.225Z,0.20
2022-12-16T13:10:37.919Z,0.20
2022-12-16T13:13:35.811Z,0.20
2022-12-16T13:16:04.807Z,0.20
2022-12-16T13:18:32.927Z,0.20
2022-12-16T13:20:59.539Z,0.30
2022-12-16T13:23:40.499Z,0.20
2022-12-16T13:26:07.096Z,0.20
2022-12-16T13:28:40.283Z,0.20
2022-12-16T13:31:09.325Z,0.20
2022-12-16T13:33:36.499Z,0.22
2022-12-16T13:36:03.912Z,0.20
2022-12-16T13:38:30.500Z,0.20
2022-12-16T13:40:59.792Z,0.28
2022-12-16T13:43:47.284Z,0.20
2022-12-16T13:46:16.859Z,0.20
2022-12-16T13:48:43.638Z,0.20
2022-12-16T13:51:39.032Z,0.20
2022-12-16T13:54:07.557Z,0.30
2022-12-16T13:56:38.017Z,0.20
2022-12-16T13:59:16.012Z,0.30
2022-12-16T14:01:57.988Z,0.20
2022-12-16T14:04:34.968Z,0.20
2022-12-16T14:07:01.924Z,0.20
2022-12-16T14:09:36.519Z,0.20
2022-12-16T14:12:10.112Z,0.20
2022-12-16T14:14:44.990Z,0.20
2022-12-16T14:17:23.524Z,0.25
2022-12-16T14:20:19.604Z,0.20
2022-12-16T14:23:06.826Z,0.20
2022-12-16T14:25:34.799Z,0.20
2022-12-16T14:28:01.445Z,0.20
2022-12-16T14:30:28.905Z,0.20
2022-12-16T14:32:55.368Z,0.20
2022-12-16T14:35:24.855Z,0.20
2022-12-16T14:37:51.337Z,0.20
2022-12-16T14:40:22.676Z,0.30
2022-12-16T14:42:53.128Z,0.30
2022-12-16T14:45:19.571Z,0.22
2022-12-16T14:47:46.084Z,0.20
2022-12-16T14:50:41.768Z,0.20
2022-12-16T14:53:21.880Z,0.20
2022-12-16T14:55:48.475Z,0.30
2022-12-16T14:58:20.708Z,0.20
2022-12-16T15:00:48.993Z,0.28
2022-12-16T15:03:30.225Z,0.22
2022-12-16T15:05:57.809Z,0.30
2022-12-16T15:08:26.246Z,0.20
2022-12-16T15:10:52.924Z,0.20
2022-12-16T15:13:21.460Z,0.20
2022-12-16T15:15:49.734Z,0.30
2022-12-16T15:18:27.863Z,0.20
2022-12-16T15:20:55.276Z,0.30
2022-12-16T15:23:33.083Z,0.30
2022-12-16T15:26:04.087Z,0.30
2022-12-16T15:31:13.760Z,0.20
2022-12-16T15:33:40.319Z,0.20
2022-12-16T15:36:32.005Z,0.20
2022-12-16T15:38:58.520Z,0.22
2022-12-16T15:41:33.653Z,0.30
2022-12-16T15:44:00.487Z,0.30
2022-12-16T15:46:28.968Z,0.30
2022-12-16T15:48:55.611Z,0.35
2022-12-16T15:51:51.762Z,0.30
2022-12-16T15:54:20.813Z,0.30
2022-12-16T15:56:47.513Z,0.30
2022-12-16T15:59:21.851Z,0.35
2022-12-16T16:01:48.464Z,0.30
2022-12-16T16:04:33.341Z,0.30
2022-12-16T16:06:59.811Z,0.30
2022-12-16T16:09:29.747Z,0.30
2022-12-16T16:11:56.273Z,0.30
2022-12-16T16:14:22.849Z,0.30
2022-12-16T16:16:49.492Z,0.28
2022-12-16T16:19:25.324Z,0.30
2022-12-16T16:21:51.809Z,0.30
2022-12-16T16:24:18.279Z,0.20
2022-12-16T16:26:44.930Z,0.20
2022-12-16T16:29:11.688Z,0.20
2022-12-16T16:31:38.429Z,0.20
2022-12-16T16:34:05.046Z,0.30
2022-12-16T16:36:31.661Z,0.28
2022-12-16T16:38:59.716Z,0.30
2022-12-16T16:41:26.463Z,0.30
2022-12-16T16:43:52.996Z,0.30
2022-12-16T16:46:37.055Z,0.30
2022-12-16T16:49:03.857Z,0.20
2022-12-16T16:51:30.445Z,0.30
2022-12-16T16:53:56.965Z,0.30
2022-12-16T16:56:23.528Z,0.20
2022-12-16T16:58:50.019Z,0.30
2022-12-16T17:01:18.586Z,0.20
2022-12-16T17:03:45.492Z,0.30
2022-12-16T17:06:12.183Z,0.30
2022-12-16T17:08:38.742Z,0.20
2022-12-16T17:11:20.513Z,0.20
2022-12-16T17:13:47.010Z,0.20
2022-12-16T17:16:14.592Z,0.20
2022-12-16T17:18:45.586Z,0.20
2022-12-16T17:21:13.758Z,0.30
2022-12-16T17:23:40.433Z,0.20
2022-12-16T17:26:10.073Z,0.20
2022-12-16T17:28:36.603Z,0.20
2022-12-16T17:31:09.439Z,0.20
2022-12-16T17:33:36.581Z,0.20
2022-12-16T17:36:03.544Z,0.20
2022-12-16T17:38:30.142Z,0.20
2022-12-16T17:40:56.656Z,0.20
2022-12-16T17:43:23.155Z,0.30
2022-12-16T17:46:15.905Z,0.30
2022-12-16T17:48:45.535Z,0.20
2022-12-16T17:51:12.345Z,0.20
2022-12-16T17:53:38.823Z,0.30
2022-12-16T17:56:05.605Z,0.20
2022-12-16T17:58:34.349Z,0.30
2022-12-16T18:01:05.942Z,0.22
2022-12-16T18:03:33.078Z,0.20
2022-12-16T18:06:02.721Z,0.20
2022-12-16T18:08:30.905Z,0.20
2022-12-16T18:10:58.504Z,0.20
2022-12-16T18:13:25.102Z,0.20
2022-12-16T18:15:52.780Z,0.20
2022-12-16T18:18:19.727Z,0.20
2022-12-16T18:20:46.288Z,0.20
2022-12-16T18:23:12.990Z,0.20
2022-12-16T18:25:39.660Z,0.28
2022-12-16T18:28:06.360Z,0.20
2022-12-16T18:30:32.874Z,0.20
2022-12-16T18:32:59.442Z,0.20
2022-12-16T18:35:26.014Z,0.20
2022-12-16T18:37:52.549Z,0.30
2022-12-16T18:40:23.555Z,0.20
2022-12-16T18:42:50.089Z,0.20
2022-12-16T18:45:16.795Z,0.20
2022-12-16T18:47:44.602Z,0.20
2022-12-16T18:50:12.315Z,0.20
2022-12-16T18:52:39.006Z,0.20
2022-12-16T18:55:06.151Z,0.22
2022-12-16T18:57:37.844Z,0.20
2022-12-16T19:00:06.837Z,0.20
2022-12-16T19:02:33.657Z,0.20
2022-12-16T19:05:00.285Z,0.20
2022-12-16T19:07:26.821Z,0.28
2022-12-16T19:09:53.418Z,0.20
2022-12-16T19:12:30.292Z,0.20
2022-12-16T19:14:56.871Z,0.20
2022-12-16T19:17:24.501Z,0.20
2022-12-16T19:19:51.132Z,0.20
2022-12-16T19:22:18.194Z,0.20
2022-12-16T19:24:46.332Z,0.20
2022-12-16T19:27:15.471Z,0.20
2022-12-16T19:29:42.257Z,0.20
2022-12-16T19:32:08.891Z,0.20
2022-12-16T19:34:36.104Z,0.20
2022-12-16T19:37:02.934Z,0.20
2022-12-16T19:39:29.545Z,0.20
2022-12-16T19:41:56.359Z,0.20
2022-12-16T19:44:25.134Z,0.20
2022-12-16T19:46:51.728Z,0.20
2022-12-16T19:49:18.368Z,0.20
2022-12-16T19:51:44.957Z,0.20
2022-12-16T19:54:11.448Z,0.20
2022-12-16T19:56:38.132Z,0.20
2022-12-16T19:59:04.765Z,0.20
2022-12-16T20:01:31.492Z,0.20
2022-12-16T20:03:58.097Z,0.20
2022-12-16T20:06:24.634Z,0.20
2022-12-16T20:08:52.698Z,0.20
2022-12-16T20:11:21.210Z,0.20
2022-12-16T20:13:47.749Z,0.20
2022-12-16T20:16:14.405Z,0.20
2022-12-16T20:18:40.964Z,0.20
2022-12-16T20:21:07.504Z,0.20
2022-12-16T20:23:34.076Z,0.20
2022-12-16T20:26:01.827Z,0.20
2022-12-16T20:28:28.337Z,0.20
2022-12-16T20:30:56.197Z,0.20
2022-12-16T20:33:23.005Z,0.20
2022-12-16T20:36:03.032Z,0.20
2022-12-16T20:38:29.515Z,0.20
2022-12-16T20:41:00.819Z,0.20
2022-12-16T20:43:27.378Z,0.30
2022-12-16T20:45:56.975Z,0.22
2022-12-16T20:48:23.557Z,0.20
2022-12-16T20:50:57.960Z,0.20
2022-12-16T20:53:24.590Z,0.30
2022-12-16T20:55:51.212Z,0.20
2022-12-16T20:58:19.999Z,0.30
2022-12-16T21:00:51.580Z,0.20
2022-12-16T21:03:30.501Z,0.20
2022-12-16T21:05:57.038Z,0.20
2022-12-16T21:08:25.014Z,0.20
2022-12-16T21:10:57.866Z,0.25
2022-12-16T21:13:24.387Z,0.20
2022-12-16T21:15:50.965Z,0.20
2022-12-16T21:18:18.268Z,0.20
2022-12-16T21:20:44.814Z,0.20
2022-12-16T21:23:11.331Z,0.20
2022-12-16T21:25:37.824Z,0.20
2022-12-16T21:28:04.561Z,0.30
2022-12-16T21:30:31.249Z,0.20
2022-12-16T21:32:57.948Z,0.20
2022-12-16T21:35:24.903Z,0.20
2022-12-16T21:37:52.448Z,0.20
2022-12-16T21:40:20.669Z,0.20
2022-12-16T21:42:47.183Z,0.20
2022-12-16T21:45:13.731Z,0.20
2022-12-16T21:47:40.347Z,0.20
2022-12-16T21:50:07.118Z,0.20
2022-12-16T21:52:33.678Z,0.30
2022-12-16T21:55:00.227Z,0.20
2022-12-16T21:57:26.839Z,0.30
2022-12-16T21:59:53.329Z,0.20
2022-12-16T22:02:23.089Z,0.20
2022-12-16T22:04:49.762Z,0.20
2022-12-16T22:07:16.397Z,0.20
2022-12-16T22:09:43.024Z,0.20
2022-12-16T22:12:09.713Z,0.30
2022-12-16T22:14:36.292Z,0.20
2022-12-16T22:17:02.833Z,0.20
2022-12-16T22:19:29.467Z,0.20
2022-12-16T22:22:06.844Z,0.20
2022-12-16T22:24:33.381Z,0.20
2022-12-16T22:26:59.992Z,0.20
2022-12-16T22:29:26.472Z,0.20
2022-12-16T22:31:55.046Z,0.20
2022-12-16T22:34:23.105Z,0.30
2022-12-16T22:36:49.577Z,0.20
2022-12-16T22:39:16.113Z,0.20
2022-12-16T22:41:42.743Z,0.20
2022-12-16T22:44:09.363Z,0.30
2022-12-16T22:46:36.291Z,0.20
2022-12-16T22:49:04.353Z,0.30
2022-12-16T22:51:30.948Z,0.20
2022-12-16T22:53:57.867Z,0.22
2022-12-16T22:56:24.436Z,0.30
2022-12-16T22:58:50.923Z,0.20
2022-12-16T23:01:18.263Z,0.20
2022-12-16T23:03:45.190Z,0.20
2022-12-16T23:06:11.940Z,0.20
2022-12-16T23:08:38.407Z,0.20
2022-12-16T23:11:05.127Z,0.20
2022-12-16T23:13:31.656Z,0.20
2022-12-16T23:15:58.332Z,0.30
2022-12-16T23:18:25.346Z,0.30
2022-12-16T23:20:52.031Z,0.20
2022-12-16T23:23:18.628Z,0.22
2022-12-16T23:25:57.008Z,0.20
2022-12-16T23:28:23.671Z,0.30
2022-12-16T23:30:57.616Z,0.30
2022-12-16T23:33:24.155Z,0.20
2022-12-16T23:35:50.660Z,0.20
2022-12-16T23:38:17.176Z,0.20
2022-12-16T23:40:43.731Z,0.25
2022-12-16T23:43:10.318Z,0.20
2022-12-16T23:45:36.779Z,0.28
2022-12-16T23:48:06.565Z,0.20
2022-12-16T23:50:33.027Z,0.20
2022-12-16T23:53:08.672Z,0.30
2022-12-16T23:55:36.286Z,0.20
2022-12-16T23:58:05.219Z,0.20
